sensor_id;sensor_type;location;lat;lon;timestamp;P1;durP1;ratioP1;P2;durP2;ratioP2
36415;SDS011;22447;44.530;18.620;2022-12-07T00:01:06;299.77;;;111.65;;
36415;SDS011;22447;44.530;18.620;2022-12-07T00:03:37;267.08;;;105.18;;
36415;SDS011;22447;44.530;18.620;2022-12-07T00:06:04;253.23;;;102.70;;
36415;SDS011;22447;44.530;18.620;2022-12-07T00:08:32;249.98;;;103.05;;
36415;SDS011;22447;44.530;18.620;2022-12-07T00:11:09;248.55;;;100.82;;
36415;SDS011;22447;44.530;18.620;2022-12-07T00:13:37;249.73;;;102.78;;
36415;SDS011;22447;44.530;18.620;2022-12-07T00:16:08;238.10;;;98.72;;
36415;SDS011;22447;44.530;18.620;2022-12-07T00:18:37;226.65;;;98.00;;
36415;SDS011;22447;44.530;18.620;2022-12-07T00:21:04;246.85;;;100.75;;
36415;SDS011;22447;44.530;18.620;2022-12-07T00:23:35;254.02;;;105.43;;
36415;SDS011;22447;44.530;18.620;2022-12-07T00:26:08;311.08;;;124.10;;
36415;SDS011;22447;44.530;18.620;2022-12-07T00:28:34;287.05;;;119.72;;
36415;SDS011;22447;44.530;18.620;2022-12-07T00:31:02;260.10;;;108.00;;
36415;SDS011;22447;44.530;18.620;2022-12-07T00:33:30;247.35;;;107.53;;
36415;SDS011;22447;44.530;18.620;2022-12-07T00:35:57;289.73;;;120.93;;
36415;SDS011;22447;44.530;18.620;2022-12-07T00:38:24;332.33;;;138.82;;
36415;SDS011;22447;44.530;18.620;2022-12-07T00:43:48;208.48;;;93.47;;
36415;SDS011;22447;44.530;18.620;2022-12-07T00:46:15;212.45;;;97.90;;
36415;SDS011;22447;44.530;18.620;2022-12-07T00:48:41;187.13;;;85.25;;
36415;SDS011;22447;44.530;18.620;2022-12-07T00:51:08;180.15;;;83.18;;
36415;SDS011;22447;44.530;18.620;2022-12-07T00:53:36;140.77;;;70.43;;
36415;SDS011;22447;44.530;18.620;2022-12-07T00:56:06;170.38;;;81.22;;
36415;SDS011;22447;44.530;18.620;2022-12-07T00:58:33;211.68;;;91.15;;
36415;SDS011;22447;44.530;18.620;2022-12-07T01:00:59;192.45;;;86.68;;
36415;SDS011;22447;44.530;18.620;2022-12-07T01:03:27;236.23;;;106.50;;
36415;SDS011;22447;44.530;18.620;2022-12-07T01:05:54;213.85;;;97.57;;
36415;SDS011;22447;44.530;18.620;2022-12-07T01:08:21;213.30;;;97.05;;
36415;SDS011;22447;44.530;18.620;2022-12-07T01:10:48;214.95;;;99.93;;
36415;SDS011;22447;44.530;18.620;2022-12-07T01:13:15;240.57;;;108.72;;
36415;SDS011;22447;44.530;18.620;2022-12-07T01:15:42;176.57;;;85.38;;
36415;SDS011;22447;44.530;18.620;2022-12-07T01:18:08;142.68;;;68.90;;
36415;SDS011;22447;44.530;18.620;2022-12-07T01:20:35;125.32;;;63.35;;
36415;SDS011;22447;44.530;18.620;2022-12-07T01:23:02;143.57;;;69.60;;
36415;SDS011;22447;44.530;18.620;2022-12-07T01:25:28;138.13;;;67.07;;
36415;SDS011;22447;44.530;18.620;2022-12-07T01:27:54;127.72;;;64.65;;
36415;SDS011;22447;44.530;18.620;2022-12-07T01:30:20;147.70;;;68.30;;
36415;SDS011;22447;44.530;18.620;2022-12-07T01:32:46;133.20;;;66.38;;
36415;SDS011;22447;44.530;18.620;2022-12-07T01:35:12;124.28;;;61.72;;
36415;SDS011;22447;44.530;18.620;2022-12-07T01:37:38;135.10;;;63.67;;
36415;SDS011;22447;44.530;18.620;2022-12-07T01:40:06;130.80;;;63.20;;
36415;SDS011;22447;44.530;18.620;2022-12-07T01:42:33;137.63;;;66.15;;
36415;SDS011;22447;44.530;18.620;2022-12-07T01:45:36;127.78;;;62.42;;
36415;SDS011;22447;44.530;18.620;2022-12-07T01:48:05;123.68;;;59.65;;
36415;SDS011;22447;44.530;18.620;2022-12-07T01:50:33;129.52;;;60.45;;
36415;SDS011;22447;44.530;18.620;2022-12-07T01:53:00;128.52;;;62.13;;
36415;SDS011;22447;44.530;18.620;2022-12-07T01:55:29;138.07;;;64.95;;
36415;SDS011;22447;44.530;18.620;2022-12-07T01:57:55;130.68;;;62.08;;
36415;SDS011;22447;44.530;18.620;2022-12-07T02:00:23;143.15;;;65.57;;
36415;SDS011;22447;44.530;18.620;2022-12-07T02:05:25;127.95;;;60.58;;
36415;SDS011;22447;44.530;18.620;2022-12-07T02:07:53;139.68;;;62.33;;
36415;SDS011;22447;44.530;18.620;2022-12-07T02:10:23;135.27;;;63.63;;
36415;SDS011;22447;44.530;18.620;2022-12-07T02:24:25;131.98;;;63.70;;
36415;SDS011;22447;44.530;18.620;2022-12-07T02:30:00;132.13;;;61.65;;
36415;SDS011;22447;44.530;18.620;2022-12-07T02:35:24;153.23;;;76.30;;
36415;SDS011;22447;44.530;18.620;2022-12-07T02:40:37;150.00;;;72.47;;
36415;SDS011;22447;44.530;18.620;2022-12-07T02:43:26;145.13;;;67.35;;
36415;SDS011;22447;44.530;18.620;2022-12-07T02:46:25;194.38;;;88.97;;
36415;SDS011;22447;44.530;18.620;2022-12-07T02:48:55;150.63;;;71.32;;
36415;SDS011;22447;44.530;18.620;2022-12-07T02:51:24;149.00;;;69.80;;
36415;SDS011;22447;44.530;18.620;2022-12-07T02:53:51;144.63;;;69.78;;
36415;SDS011;22447;44.530;18.620;2022-12-07T02:56:21;175.18;;;83.97;;
36415;SDS011;22447;44.530;18.620;2022-12-07T03:02:07;154.35;;;75.45;;
36415;SDS011;22447;44.530;18.620;2022-12-07T03:15:39;150.10;;;68.15;;
36415;SDS011;22447;44.530;18.620;2022-12-07T03:18:06;144.02;;;71.25;;
36415;SDS011;22447;44.530;18.620;2022-12-07T03:20:34;144.25;;;66.80;;
36415;SDS011;22447;44.530;18.620;2022-12-07T03:23:03;125.50;;;59.35;;
36415;SDS011;22447;44.530;18.620;2022-12-07T03:25:35;117.70;;;59.03;;
36415;SDS011;22447;44.530;18.620;2022-12-07T03:28:05;108.80;;;55.00;;
36415;SDS011;22447;44.530;18.620;2022-12-07T03:31:19;110.72;;;54.17;;
36415;SDS011;22447;44.530;18.620;2022-12-07T03:33:39;108.60;;;54.00;;
36415;SDS011;22447;44.530;18.620;2022-12-07T03:36:21;111.72;;;55.60;;
36415;SDS011;22447;44.530;18.620;2022-12-07T03:41:36;104.18;;;48.83;;
36415;SDS011;22447;44.530;18.620;2022-12-07T03:44:03;97.22;;;48.42;;
36415;SDS011;22447;44.530;18.620;2022-12-07T03:49:13;98.47;;;50.20;;
36415;SDS011;22447;44.530;18.620;2022-12-07T03:51:50;116.30;;;53.80;;
36415;SDS011;22447;44.530;18.620;2022-12-07T03:57:11;91.40;;;47.45;;
36415;SDS011;22447;44.530;18.620;2022-12-07T03:59:38;92.50;;;47.85;;
36415;SDS011;22447;44.530;18.620;2022-12-07T04:02:06;85.47;;;45.67;;
36415;SDS011;22447;44.530;18.620;2022-12-07T04:04:33;80.05;;;42.92;;
36415;SDS011;22447;44.530;18.620;2022-12-07T04:06:59;86.65;;;45.38;;
36415;SDS011;22447;44.530;18.620;2022-12-07T04:09:25;80.13;;;42.97;;
36415;SDS011;22447;44.530;18.620;2022-12-07T04:11:51;75.78;;;40.90;;
36415;SDS011;22447;44.530;18.620;2022-12-07T04:14:17;77.45;;;40.95;;
36415;SDS011;22447;44.530;18.620;2022-12-07T04:16:50;67.53;;;37.22;;
36415;SDS011;22447;44.530;18.620;2022-12-07T04:19:19;74.90;;;38.95;;
36415;SDS011;22447;44.530;18.620;2022-12-07T04:21:48;75.28;;;41.85;;
36415;SDS011;22447;44.530;18.620;2022-12-07T04:24:14;75.53;;;43.03;;
36415;SDS011;22447;44.530;18.620;2022-12-07T04:26:41;66.45;;;38.00;;
36415;SDS011;22447;44.530;18.620;2022-12-07T04:29:08;66.13;;;37.05;;
36415;SDS011;22447;44.530;18.620;2022-12-07T04:31:35;70.00;;;36.97;;
36415;SDS011;22447;44.530;18.620;2022-12-07T04:34:01;78.95;;;38.90;;
36415;SDS011;22447;44.530;18.620;2022-12-07T04:36:27;77.63;;;41.20;;
36415;SDS011;22447;44.530;18.620;2022-12-07T04:38:54;73.88;;;38.13;;
36415;SDS011;22447;44.530;18.620;2022-12-07T04:41:20;70.43;;;38.88;;
36415;SDS011;22447;44.530;18.620;2022-12-07T04:43:54;83.82;;;40.95;;
36415;SDS011;22447;44.530;18.620;2022-12-07T04:46:22;67.57;;;37.90;;
36415;SDS011;22447;44.530;18.620;2022-12-07T04:48:49;68.90;;;38.08;;
36415;SDS011;22447;44.530;18.620;2022-12-07T04:51:15;70.35;;;41.42;;
36415;SDS011;22447;44.530;18.620;2022-12-07T04:53:45;67.22;;;38.50;;
36415;SDS011;22447;44.530;18.620;2022-12-07T04:56:11;74.13;;;38.67;;
36415;SDS011;22447;44.530;18.620;2022-12-07T04:58:37;72.82;;;39.60;;
36415;SDS011;22447;44.530;18.620;2022-12-07T05:01:03;79.40;;;40.65;;
36415;SDS011;22447;44.530;18.620;2022-12-07T05:03:29;119.55;;;60.90;;
36415;SDS011;22447;44.530;18.620;2022-12-07T05:05:55;110.93;;;58.42;;
36415;SDS011;22447;44.530;18.620;2022-12-07T05:08:21;103.28;;;55.35;;
36415;SDS011;22447;44.530;18.620;2022-12-07T05:10:48;81.88;;;42.13;;
36415;SDS011;22447;44.530;18.620;2022-12-07T05:13:14;80.78;;;42.63;;
36415;SDS011;22447;44.530;18.620;2022-12-07T05:15:40;67.25;;;36.20;;
36415;SDS011;22447;44.530;18.620;2022-12-07T05:18:09;66.18;;;37.72;;
36415;SDS011;22447;44.530;18.620;2022-12-07T05:20:38;59.78;;;33.22;;
36415;SDS011;22447;44.530;18.620;2022-12-07T05:23:04;56.45;;;33.65;;
36415;SDS011;22447;44.530;18.620;2022-12-07T05:25:30;58.42;;;32.55;;
36415;SDS011;22447;44.530;18.620;2022-12-07T05:27:56;49.53;;;30.30;;
36415;SDS011;22447;44.530;18.620;2022-12-07T05:30:23;73.18;;;35.97;;
36415;SDS011;22447;44.530;18.620;2022-12-07T05:32:50;54.72;;;31.83;;
36415;SDS011;22447;44.530;18.620;2022-12-07T05:35:16;51.90;;;29.27;;
36415;SDS011;22447;44.530;18.620;2022-12-07T05:37:43;50.17;;;28.90;;
36415;SDS011;22447;44.530;18.620;2022-12-07T05:40:10;55.63;;;27.92;;
36415;SDS011;22447;44.530;18.620;2022-12-07T05:42:36;60.97;;;32.40;;
36415;SDS011;22447;44.530;18.620;2022-12-07T05:45:03;59.28;;;32.40;;
36415;SDS011;22447;44.530;18.620;2022-12-07T05:47:29;54.67;;;28.05;;
36415;SDS011;22447;44.530;18.620;2022-12-07T05:49:55;52.63;;;28.77;;
36415;SDS011;22447;44.530;18.620;2022-12-07T05:52:21;55.08;;;32.17;;
36415;SDS011;22447;44.530;18.620;2022-12-07T05:54:47;48.53;;;30.13;;
36415;SDS011;22447;44.530;18.620;2022-12-07T05:57:13;53.15;;;29.42;;
36415;SDS011;22447;44.530;18.620;2022-12-07T05:59:39;46.33;;;27.77;;
36415;SDS011;22447;44.530;18.620;2022-12-07T06:02:07;46.28;;;28.08;;
36415;SDS011;22447;44.530;18.620;2022-12-07T06:04:39;45.78;;;26.83;;
36415;SDS011;22447;44.530;18.620;2022-12-07T06:07:10;51.28;;;29.33;;
36415;SDS011;22447;44.530;18.620;2022-12-07T06:09:38;47.55;;;26.88;;
36415;SDS011;22447;44.530;18.620;2022-12-07T06:12:04;44.13;;;25.63;;
36415;SDS011;22447;44.530;18.620;2022-12-07T06:14:49;39.45;;;24.25;;
36415;SDS011;22447;44.530;18.620;2022-12-07T06:17:15;36.50;;;21.90;;
36415;SDS011;22447;44.530;18.620;2022-12-07T06:19:41;48.65;;;24.83;;
36415;SDS011;22447;44.530;18.620;2022-12-07T06:22:08;47.55;;;24.15;;
36415;SDS011;22447;44.530;18.620;2022-12-07T06:24:35;39.53;;;24.63;;
36415;SDS011;22447;44.530;18.620;2022-12-07T06:27:01;46.17;;;25.92;;
36415;SDS011;22447;44.530;18.620;2022-12-07T06:29:27;50.28;;;27.02;;
36415;SDS011;22447;44.530;18.620;2022-12-07T06:31:53;51.25;;;28.85;;
36415;SDS011;22447;44.530;18.620;2022-12-07T06:34:20;56.53;;;31.08;;
36415;SDS011;22447;44.530;18.620;2022-12-07T06:36:48;57.60;;;30.65;;
36415;SDS011;22447;44.530;18.620;2022-12-07T06:39:17;76.90;;;38.03;;
36415;SDS011;22447;44.530;18.620;2022-12-07T06:41:49;70.78;;;40.17;;
36415;SDS011;22447;44.530;18.620;2022-12-07T06:44:17;71.80;;;39.35;;
36415;SDS011;22447;44.530;18.620;2022-12-07T06:46:44;85.80;;;41.97;;
36415;SDS011;22447;44.530;18.620;2022-12-07T06:49:10;68.75;;;38.05;;
36415;SDS011;22447;44.530;18.620;2022-12-07T06:51:36;80.25;;;39.30;;
36415;SDS011;22447;44.530;18.620;2022-12-07T06:54:06;79.53;;;39.60;;
36415;SDS011;22447;44.530;18.620;2022-12-07T06:56:35;71.97;;;37.35;;
36415;SDS011;22447;44.530;18.620;2022-12-07T06:59:02;58.95;;;36.70;;
36415;SDS011;22447;44.530;18.620;2022-12-07T07:01:29;61.05;;;34.30;;
36415;SDS011;22447;44.530;18.620;2022-12-07T07:03:55;60.13;;;34.53;;
36415;SDS011;22447;44.530;18.620;2022-12-07T07:06:20;71.40;;;40.90;;
36415;SDS011;22447;44.530;18.620;2022-12-07T07:08:46;67.68;;;38.83;;
36415;SDS011;22447;44.530;18.620;2022-12-07T07:11:13;65.28;;;36.45;;
36415;SDS011;22447;44.530;18.620;2022-12-07T07:13:38;62.88;;;37.95;;
36415;SDS011;22447;44.530;18.620;2022-12-07T07:16:05;65.85;;;36.05;;
36415;SDS011;22447;44.530;18.620;2022-12-07T07:18:32;60.45;;;35.63;;
36415;SDS011;22447;44.530;18.620;2022-12-07T07:20:58;68.45;;;38.97;;
36415;SDS011;22447;44.530;18.620;2022-12-07T07:23:24;74.05;;;45.90;;
36415;SDS011;22447;44.530;18.620;2022-12-07T07:25:50;66.82;;;39.88;;
36415;SDS011;22447;44.530;18.620;2022-12-07T07:28:16;67.72;;;43.25;;
36415;SDS011;22447;44.530;18.620;2022-12-07T07:30:42;75.07;;;42.50;;
36415;SDS011;22447;44.530;18.620;2022-12-07T07:33:09;66.20;;;40.92;;
36415;SDS011;22447;44.530;18.620;2022-12-07T07:35:35;91.97;;;51.33;;
36415;SDS011;22447;44.530;18.620;2022-12-07T07:38:01;70.53;;;41.63;;
36415;SDS011;22447;44.530;18.620;2022-12-07T07:40:28;76.10;;;47.80;;
36415;SDS011;22447;44.530;18.620;2022-12-07T07:42:54;65.97;;;40.40;;
36415;SDS011;22447;44.530;18.620;2022-12-07T07:45:21;73.57;;;41.75;;
36415;SDS011;22447;44.530;18.620;2022-12-07T07:47:49;88.95;;;53.08;;
36415;SDS011;22447;44.530;18.620;2022-12-07T07:50:16;114.95;;;67.20;;
36415;SDS011;22447;44.530;18.620;2022-12-07T07:52:44;120.70;;;74.90;;
36415;SDS011;22447;44.530;18.620;2022-12-07T07:55:10;106.15;;;59.60;;
36415;SDS011;22447;44.530;18.620;2022-12-07T07:57:36;98.82;;;56.03;;
36415;SDS011;22447;44.530;18.620;2022-12-07T08:00:04;108.95;;;60.00;;
36415;SDS011;22447;44.530;18.620;2022-12-07T08:02:37;95.82;;;53.58;;
36415;SDS011;22447;44.530;18.620;2022-12-07T08:05:04;75.03;;;42.30;;
36415;SDS011;22447;44.530;18.620;2022-12-07T08:07:30;84.35;;;45.25;;
36415;SDS011;22447;44.530;18.620;2022-12-07T08:09:56;77.20;;;43.17;;
36415;SDS011;22447;44.530;18.620;2022-12-07T08:12:22;72.55;;;40.75;;
36415;SDS011;22447;44.530;18.620;2022-12-07T08:14:48;84.82;;;42.50;;
36415;SDS011;22447;44.530;18.620;2022-12-07T08:17:14;180.77;;;75.43;;
36415;SDS011;22447;44.530;18.620;2022-12-07T08:19:39;267.50;;;104.43;;
36415;SDS011;22447;44.530;18.620;2022-12-07T08:22:05;286.33;;;116.05;;
36415;SDS011;22447;44.530;18.620;2022-12-07T08:24:35;272.88;;;106.38;;
36415;SDS011;22447;44.530;18.620;2022-12-07T08:27:01;152.63;;;67.07;;
36415;SDS011;22447;44.530;18.620;2022-12-07T08:29:27;169.02;;;73.05;;
36415;SDS011;22447;44.530;18.620;2022-12-07T08:31:53;115.20;;;54.35;;
36415;SDS011;22447;44.530;18.620;2022-12-07T08:34:19;135.60;;;60.95;;
36415;SDS011;22447;44.530;18.620;2022-12-07T08:36:45;152.27;;;65.45;;
36415;SDS011;22447;44.530;18.620;2022-12-07T08:39:11;82.55;;;41.67;;
36415;SDS011;22447;44.530;18.620;2022-12-07T08:41:37;105.38;;;51.78;;
36415;SDS011;22447;44.530;18.620;2022-12-07T08:44:03;91.15;;;49.78;;
36415;SDS011;22447;44.530;18.620;2022-12-07T08:46:34;76.70;;;45.55;;
36415;SDS011;22447;44.530;18.620;2022-12-07T08:49:23;87.32;;;47.60;;
36415;SDS011;22447;44.530;18.620;2022-12-07T08:51:55;90.65;;;51.70;;
36415;SDS011;22447;44.530;18.620;2022-12-07T08:54:22;92.53;;;53.65;;
36415;SDS011;22447;44.530;18.620;2022-12-07T08:56:48;103.75;;;60.97;;
36415;SDS011;22447;44.530;18.620;2022-12-07T08:59:16;136.32;;;78.80;;
36415;SDS011;22447;44.530;18.620;2022-12-07T09:01:44;128.30;;;73.03;;
36415;SDS011;22447;44.530;18.620;2022-12-07T09:04:10;135.43;;;75.57;;
36415;SDS011;22447;44.530;18.620;2022-12-07T09:06:36;136.75;;;77.57;;
36415;SDS011;22447;44.530;18.620;2022-12-07T09:09:02;125.47;;;73.50;;
36415;SDS011;22447;44.530;18.620;2022-12-07T09:11:29;116.30;;;69.78;;
36415;SDS011;22447;44.530;18.620;2022-12-07T09:13:55;133.02;;;79.45;;
36415;SDS011;22447;44.530;18.620;2022-12-07T09:16:21;133.70;;;80.13;;
36415;SDS011;22447;44.530;18.620;2022-12-07T09:18:47;141.25;;;84.32;;
36415;SDS011;22447;44.530;18.620;2022-12-07T09:21:13;154.43;;;89.18;;
36415;SDS011;22447;44.530;18.620;2022-12-07T09:23:40;155.65;;;90.18;;
36415;SDS011;22447;44.530;18.620;2022-12-07T09:26:07;186.23;;;102.93;;
36415;SDS011;22447;44.530;18.620;2022-12-07T09:28:33;183.05;;;102.25;;
36415;SDS011;22447;44.530;18.620;2022-12-07T09:31:00;186.57;;;103.55;;
36415;SDS011;22447;44.530;18.620;2022-12-07T09:33:27;170.70;;;93.38;;
36415;SDS011;22447;44.530;18.620;2022-12-07T09:35:53;149.52;;;86.63;;
36415;SDS011;22447;44.530;18.620;2022-12-07T09:38:19;135.15;;;78.15;;
36415;SDS011;22447;44.530;18.620;2022-12-07T09:40:46;130.63;;;74.50;;
36415;SDS011;22447;44.530;18.620;2022-12-07T09:43:20;110.25;;;64.20;;
36415;SDS011;22447;44.530;18.620;2022-12-07T09:45:51;116.65;;;66.63;;
36415;SDS011;22447;44.530;18.620;2022-12-07T09:48:21;121.53;;;68.28;;
36415;SDS011;22447;44.530;18.620;2022-12-07T09:50:50;98.68;;;58.28;;
36415;SDS011;22447;44.530;18.620;2022-12-07T09:53:25;85.07;;;53.55;;
36415;SDS011;22447;44.530;18.620;2022-12-07T09:55:53;83.35;;;50.30;;
36415;SDS011;22447;44.530;18.620;2022-12-07T09:58:23;85.30;;;51.28;;
36415;SDS011;22447;44.530;18.620;2022-12-07T10:03:33;58.75;;;37.72;;
36415;SDS011;22447;44.530;18.620;2022-12-07T10:06:01;62.88;;;38.45;;
36415;SDS011;22447;44.530;18.620;2022-12-07T10:08:27;63.20;;;38.63;;
36415;SDS011;22447;44.530;18.620;2022-12-07T10:10:56;64.18;;;39.72;;
36415;SDS011;22447;44.530;18.620;2022-12-07T10:13:39;67.30;;;40.53;;
36415;SDS011;22447;44.530;18.620;2022-12-07T10:18:50;56.97;;;35.00;;
36415;SDS011;22447;44.530;18.620;2022-12-07T10:21:17;72.00;;;43.80;;
36415;SDS011;22447;44.530;18.620;2022-12-07T10:24:03;99.63;;;56.90;;
36415;SDS011;22447;44.530;18.620;2022-12-07T10:26:41;97.38;;;57.55;;
36415;SDS011;22447;44.530;18.620;2022-12-07T10:32:03;87.03;;;50.25;;
36415;SDS011;22447;44.530;18.620;2022-12-07T10:34:39;114.55;;;62.85;;
36415;SDS011;22447;44.530;18.620;2022-12-07T10:37:27;80.72;;;48.22;;
36415;SDS011;22447;44.530;18.620;2022-12-07T10:39:54;71.88;;;43.55;;
36415;SDS011;22447;44.530;18.620;2022-12-07T10:42:30;63.05;;;38.42;;
36415;SDS011;22447;44.530;18.620;2022-12-07T10:56:07;67.75;;;37.80;;
36415;SDS011;22447;44.530;18.620;2022-12-07T11:04:28;37.88;;;24.42;;
36415;SDS011;22447;44.530;18.620;2022-12-07T11:07:18;40.13;;;25.27;;
36415;SDS011;22447;44.530;18.620;2022-12-07T11:10:13;37.38;;;23.73;;
36415;SDS011;22447;44.530;18.620;2022-12-07T11:21:12;63.50;;;38.33;;
36415;SDS011;22447;44.530;18.620;2022-12-07T11:24:17;73.53;;;43.15;;
36415;SDS011;22447;44.530;18.620;2022-12-07T11:35:31;44.08;;;26.92;;
36415;SDS011;22447;44.530;18.620;2022-12-07T11:40:44;40.15;;;25.30;;
36415;SDS011;22447;44.530;18.620;2022-12-07T11:43:22;39.97;;;26.50;;
36415;SDS011;22447;44.530;18.620;2022-12-07T11:46:05;32.63;;;22.20;;
36415;SDS011;22447;44.530;18.620;2022-12-07T11:48:46;40.00;;;24.95;;
36415;SDS011;22447;44.530;18.620;2022-12-07T11:54:30;45.53;;;28.50;;
36415;SDS011;22447;44.530;18.620;2022-12-07T11:57:07;47.17;;;30.05;;
36415;SDS011;22447;44.530;18.620;2022-12-07T11:59:43;46.20;;;29.10;;
36415;SDS011;22447;44.530;18.620;2022-12-07T12:02:16;53.83;;;30.75;;
36415;SDS011;22447;44.530;18.620;2022-12-07T12:07:52;52.85;;;33.00;;
36415;SDS011;22447;44.530;18.620;2022-12-07T12:22:15;41.78;;;27.50;;
36415;SDS011;22447;44.530;18.620;2022-12-07T12:24:45;41.45;;;26.95;;
36415;SDS011;22447;44.530;18.620;2022-12-07T12:27:26;50.58;;;31.15;;
36415;SDS011;22447;44.530;18.620;2022-12-07T12:29:57;59.17;;;34.28;;
36415;SDS011;22447;44.530;18.620;2022-12-07T12:32:39;55.50;;;35.80;;
36415;SDS011;22447;44.530;18.620;2022-12-07T12:51:53;56.20;;;29.85;;
36415;SDS011;22447;44.530;18.620;2022-12-07T12:59:36;61.70;;;35.83;;
36415;SDS011;22447;44.530;18.620;2022-12-07T13:15:45;61.08;;;40.25;;
36415;SDS011;22447;44.530;18.620;2022-12-07T13:18:23;73.93;;;46.80;;
36415;SDS011;22447;44.530;18.620;2022-12-07T13:20:55;74.47;;;46.13;;
36415;SDS011;22447;44.530;18.620;2022-12-07T13:28:41;89.45;;;48.97;;
36415;SDS011;22447;44.530;18.620;2022-12-07T13:31:11;72.63;;;45.97;;
36415;SDS011;22447;44.530;18.620;2022-12-07T13:33:46;73.32;;;45.67;;
36415;SDS011;22447;44.530;18.620;2022-12-07T13:38:51;62.50;;;37.45;;
36415;SDS011;22447;44.530;18.620;2022-12-07T13:41:25;49.83;;;32.50;;
36415;SDS011;22447;44.530;18.620;2022-12-07T13:49:24;46.70;;;30.45;;
36415;SDS011;22447;44.530;18.620;2022-12-07T13:51:50;46.97;;;29.95;;
36415;SDS011;22447;44.530;18.620;2022-12-07T13:54:17;59.42;;;35.50;;
36415;SDS011;22447;44.530;18.620;2022-12-07T13:56:47;73.65;;;42.15;;
36415;SDS011;22447;44.530;18.620;2022-12-07T13:59:22;60.30;;;35.67;;
36415;SDS011;22447;44.530;18.620;2022-12-07T14:01:50;48.70;;;27.88;;
36415;SDS011;22447;44.530;18.620;2022-12-07T14:04:18;51.65;;;30.60;;
36415;SDS011;22447;44.530;18.620;2022-12-07T14:07:15;23.73;;;16.33;;
36415;SDS011;22447;44.530;18.620;2022-12-07T14:10:02;19.77;;;13.43;;
36415;SDS011;22447;44.530;18.620;2022-12-07T14:12:30;25.48;;;17.27;;
36415;SDS011;22447;44.530;18.620;2022-12-07T14:14:58;36.50;;;25.52;;
36415;SDS011;22447;44.530;18.620;2022-12-07T14:17:26;26.20;;;19.23;;
36415;SDS011;22447;44.530;18.620;2022-12-07T14:19:54;29.67;;;19.80;;
36415;SDS011;22447;44.530;18.620;2022-12-07T14:22:26;67.85;;;31.42;;
36415;SDS011;22447;44.530;18.620;2022-12-07T14:27:39;59.95;;;24.15;;
36415;SDS011;22447;44.530;18.620;2022-12-07T14:30:16;107.18;;;64.47;;
36415;SDS011;22447;44.530;18.620;2022-12-07T14:32:43;52.00;;;30.10;;
36415;SDS011;22447;44.530;18.620;2022-12-07T14:35:14;44.20;;;22.23;;
36415;SDS011;22447;44.530;18.620;2022-12-07T14:37:42;29.40;;;18.90;;
36415;SDS011;22447;44.530;18.620;2022-12-07T14:40:43;34.28;;;18.65;;
36415;SDS011;22447;44.530;18.620;2022-12-07T14:43:04;45.63;;;21.52;;
36415;SDS011;22447;44.530;18.620;2022-12-07T14:45:33;36.25;;;17.33;;
36415;SDS011;22447;44.530;18.620;2022-12-07T14:47:59;53.40;;;27.60;;
36415;SDS011;22447;44.530;18.620;2022-12-07T14:50:25;49.67;;;25.95;;
36415;SDS011;22447;44.530;18.620;2022-12-07T14:52:55;32.08;;;19.92;;
36415;SDS011;22447;44.530;18.620;2022-12-07T14:55:25;22.80;;;15.02;;
36415;SDS011;22447;44.530;18.620;2022-12-07T14:57:54;24.27;;;16.20;;
36415;SDS011;22447;44.530;18.620;2022-12-07T15:00:21;27.80;;;18.13;;
36415;SDS011;22447;44.530;18.620;2022-12-07T15:02:49;32.55;;;18.67;;
36415;SDS011;22447;44.530;18.620;2022-12-07T15:05:16;40.95;;;21.05;;
36415;SDS011;22447;44.530;18.620;2022-12-07T15:07:42;33.72;;;19.27;;
36415;SDS011;22447;44.530;18.620;2022-12-07T15:10:16;30.35;;;18.33;;
36415;SDS011;22447;44.530;18.620;2022-12-07T15:12:47;28.75;;;17.98;;
36415;SDS011;22447;44.530;18.620;2022-12-07T15:15:13;25.42;;;15.65;;
36415;SDS011;22447;44.530;18.620;2022-12-07T15:17:39;24.30;;;14.90;;
36415;SDS011;22447;44.530;18.620;2022-12-07T15:20:07;27.48;;;17.23;;
36415;SDS011;22447;44.530;18.620;2022-12-07T15:22:38;31.98;;;20.42;;
36415;SDS011;22447;44.530;18.620;2022-12-07T15:25:04;35.50;;;21.33;;
36415;SDS011;22447;44.530;18.620;2022-12-07T15:27:31;42.97;;;24.58;;
36415;SDS011;22447;44.530;18.620;2022-12-07T15:29:57;40.20;;;24.48;;
36415;SDS011;22447;44.530;18.620;2022-12-07T15:32:22;74.00;;;39.67;;
36415;SDS011;22447;44.530;18.620;2022-12-07T15:34:48;63.20;;;36.13;;
36415;SDS011;22447;44.530;18.620;2022-12-07T15:37:15;57.85;;;33.65;;
36415;SDS011;22447;44.530;18.620;2022-12-07T15:39:41;58.97;;;34.92;;
36415;SDS011;22447;44.530;18.620;2022-12-07T15:42:07;82.10;;;46.83;;
36415;SDS011;22447;44.530;18.620;2022-12-07T15:44:33;97.00;;;58.55;;
36415;SDS011;22447;44.530;18.620;2022-12-07T15:47:17;84.97;;;53.42;;
36415;SDS011;22447;44.530;18.620;2022-12-07T15:49:43;91.55;;;55.17;;
36415;SDS011;22447;44.530;18.620;2022-12-07T15:52:09;83.10;;;48.53;;
36415;SDS011;22447;44.530;18.620;2022-12-07T15:54:35;80.95;;;43.85;;
36415;SDS011;22447;44.530;18.620;2022-12-07T15:57:01;76.03;;;41.22;;
36415;SDS011;22447;44.530;18.620;2022-12-07T15:59:27;72.03;;;38.50;;
36415;SDS011;22447;44.530;18.620;2022-12-07T16:01:54;68.93;;;38.92;;
36415;SDS011;22447;44.530;18.620;2022-12-07T16:04:20;78.95;;;38.20;;
36415;SDS011;22447;44.530;18.620;2022-12-07T16:06:46;71.85;;;36.05;;
36415;SDS011;22447;44.530;18.620;2022-12-07T16:09:12;70.05;;;36.78;;
36415;SDS011;22447;44.530;18.620;2022-12-07T16:11:38;80.78;;;44.38;;
36415;SDS011;22447;44.530;18.620;2022-12-07T16:14:04;81.00;;;42.72;;
36415;SDS011;22447;44.530;18.620;2022-12-07T16:16:30;79.43;;;42.58;;
36415;SDS011;22447;44.530;18.620;2022-12-07T16:18:56;86.20;;;42.30;;
36415;SDS011;22447;44.530;18.620;2022-12-07T16:21:22;94.20;;;47.00;;
36415;SDS011;22447;44.530;18.620;2022-12-07T16:23:48;77.82;;;40.72;;
36415;SDS011;22447;44.530;18.620;2022-12-07T16:26:15;77.82;;;41.78;;
36415;SDS011;22447;44.530;18.620;2022-12-07T16:28:42;78.93;;;43.72;;
36415;SDS011;22447;44.530;18.620;2022-12-07T16:31:10;69.30;;;37.72;;
36415;SDS011;22447;44.530;18.620;2022-12-07T16:33:40;72.45;;;37.65;;
36415;SDS011;22447;44.530;18.620;2022-12-07T16:36:08;64.25;;;36.90;;
36415;SDS011;22447;44.530;18.620;2022-12-07T16:38:36;55.25;;;31.75;;
36415;SDS011;22447;44.530;18.620;2022-12-07T16:41:02;62.53;;;34.55;;
36415;SDS011;22447;44.530;18.620;2022-12-07T16:43:29;63.53;;;36.08;;
36415;SDS011;22447;44.530;18.620;2022-12-07T16:45:55;63.33;;;35.42;;
36415;SDS011;22447;44.530;18.620;2022-12-07T16:48:21;57.33;;;32.95;;
36415;SDS011;22447;44.530;18.620;2022-12-07T16:50:47;60.40;;;33.97;;
36415;SDS011;22447;44.530;18.620;2022-12-07T16:53:13;69.25;;;36.88;;
36415;SDS011;22447;44.530;18.620;2022-12-07T16:55:41;81.22;;;45.05;;
36415;SDS011;22447;44.530;18.620;2022-12-07T16:58:09;77.88;;;42.38;;